Time;durP1;ratioP1;P1;durP2;ratioP2;P2;SDS_P1;SDS_P2;PMS_P1;PMS_P2;Temp;Humidity;BMP_temperature;BMP_pressure;BME280_temperature;BME280_humidity;BME280_pressure;Samples;Min_cycle;Max_cycle;Signal;HPM_P1;HPM_P2
2022/12/30 10:55:23;;;;;;;50.72;34.30;;;;;;;21.71;46.27;95475.94;5019742;28;20609;-77
2022/12/30 10:57:55;;;;;;;60.30;35.17;;;;;;;22.15;44.49;95468.97;5021670;28;20201;-79
2022/12/30 11:00:23;;;;;;;53.30;34.92;;;;;;;22.12;44.61;95476.66;5021026;28;20191;-80
2022/12/30 11:02:56;;;;;;;52.90;34.30;;;;;;;22.66;43.72;95460.81;5020741;28;20219;-79
2022/12/30 11:05:29;;;;;;;48.95;33.72;;;;;;;23.08;42.69;95464.56;5022428;28;20203;-80
2022/12/30 11:07:58;;;;;;;50.70;34.95;;;;;;;23.20;42.45;95458.91;5022397;28;20666;-81
2022/12/30 11:10:27;;;;;;;52.30;34.00;;;;;;;23.30;40.65;95460.69;5017638;28;20199;-80
2022/12/30 11:15:54;;;;;;;52.72;34.53;;;;;;;22.32;43.17;95445.59;5022161;28;20198;-80
2022/12/30 11:18:26;;;;;;;54.15;35.92;;;;;;;22.55;43.03;95444.97;5021595;28;20210;-81
2022/12/30 11:20:55;;;;;;;50.17;35.60;;;;;;;22.77;42.35;95457.84;5020571;28;20638;-82
2022/12/30 11:23:32;;;;;;;54.20;35.53;;;;;;;23.12;41.30;95454.19;5021720;28;20210;-79
2022/12/30 11:26:02;;;;;;;58.17;37.30;;;;;;;23.33;40.56;95454.81;5020218;28;20256;-81
2022/12/30 11:28:35;;;;;;;53.53;36.03;;;;;;;23.45;40.75;95447.31;5016175;28;20266;-81
2022/12/30 11:31:07;;;;;;;51.80;36.08;;;;;;;23.57;40.95;95450.41;5019308;28;20195;-83
2022/12/30 11:33:36;;;;;;;52.33;34.85;;;;;;;23.65;39.20;95455.91;5022801;28;20184;-84
2022/12/30 11:36:16;;;;;;;52.17;35.55;;;;;;;23.01;40.79;95450.00;5020936;28;20564;-85
2022/12/30 11:38:44;;;;;;;53.35;33.35;;;;;;;22.92;42.11;95441.84;5021221;28;20680;-83
2022/12/30 11:41:22;;;;;;;52.05;34.35;;;;;;;23.49;39.89;95449.13;5021431;28;20662;-83
2022/12/30 11:43:51;;;;;;;50.67;33.40;;;;;;;23.83;40.15;95445.66;5021996;28;20223;-85
2022/12/30 11:46:21;;;;;;;45.15;32.60;;;;;;;23.97;39.96;95435.94;5023241;28;20666;-83
2022/12/30 11:48:51;;;;;;;49.38;31.70;;;;;;;24.24;38.90;95442.28;5022640;28;20678;-84
2022/12/30 11:51:22;;;;;;;42.85;30.95;;;;;;;24.42;38.36;95446.03;5021553;28;20195;-84
2022/12/30 11:53:51;;;;;;;42.20;31.42;;;;;;;24.30;38.10;95447.56;5019901;28;20231;-84
2022/12/30 11:56:23;;;;;;;51.13;33.13;;;;;;;24.08;38.48;95448.03;5010407;28;20199;-84
2022/12/30 11:58:50;;;;;;;49.67;33.72;;;;;;;24.27;38.58;95449.69;5010778;28;20188;-83
2022/12/30 12:01:17;;;;;;;49.33;34.75;;;;;;;24.15;37.85;95448.50;5009141;28;20200;-83
2022/12/30 12:03:50;;;;;;;51.75;34.28;;;;;;;24.05;38.19;95443.28;5010271;28;20227;-83
2022/12/30 12:06:17;;;;;;;51.08;33.05;;;;;;;23.92;38.55;95446.63;5009689;28;20188;-83
2022/12/30 12:08:53;;;;;;;46.10;32.13;;;;;;;23.64;39.20;95441.03;5009104;28;20208;-83
2022/12/30 12:11:25;;;;;;;48.55;32.03;;;;;;;23.28;39.71;95437.09;5009758;28;20227;-84
2022/12/30 12:13:59;;;;;;;42.83;30.88;;;;;;;22.51;40.61;95435.97;5009587;28;20286;-83
2022/12/30 12:16:42;;;;;;;45.38;31.45;;;;;;;22.25;41.29;95439.03;5004235;28;20191;-82
2022/12/30 12:19:21;;;;;;;45.80;29.42;;;;;;;22.36;41.28;95444.00;5005807;28;20210;-83
2022/12/30 12:21:52;;;;;;;43.22;29.13;;;;;;;21.87;42.03;95435.97;5008638;28;20199;-80
2022/12/30 12:24:24;;;;;;;42.15;28.95;;;;;;;21.03;43.95;95429.66;5007247;28;20238;-82
2022/12/30 12:26:58;;;;;;;45.22;29.25;;;;;;;20.37;45.16;95435.59;5006262;28;20192;-78
2022/12/30 12:29:26;;;;;;;47.55;30.08;;;;;;;19.33;47.76;95431.31;5006504;28;20696;-81
2022/12/30 12:32:28;;;;;;;42.25;28.77;;;;;;;18.48;50.13;95424.19;5005314;28;20717;-81
2022/12/30 12:35:05;;;;;;;41.63;28.13;;;;;;;17.78;52.18;95426.78;5005850;28;20206;-89
2022/12/30 12:37:45;;;;;;;39.22;26.98;;;;;;;17.28;54.04;95408.47;5010971;28;20191;-78
2022/12/30 12:40:29;;;;;;;44.05;27.52;;;;;;;16.69;55.83;95409.88;5006864;28;20188;-79
2022/12/30 12:43:11;;;;;;;43.43;28.23;;;;;;;16.43;57.20;95408.59;5003318;28;20210;-78
2022/12/30 12:46:11;;;;;;;44.70;27.40;;;;;;;16.24;58.38;95408.00;5002069;28;20195;-79
2022/12/30 12:48:53;;;;;;;38.33;26.13;;;;;;;16.84;57.96;95410.13;5002727;28;20674;-81
2022/12/30 12:51:36;;;;;;;44.77;26.33;;;;;;;17.48;55.55;95406.91;5005985;28;20191;-80
2022/12/30 12:54:31;;;;;;;40.63;25.87;;;;;;;18.07;54.22;95410.59;5004427;28;20284;-78
2022/12/30 12:57:06;;;;;;;43.80;25.73;;;;;;;18.71;52.82;95410.75;5001226;28;20203;-78
2022/12/30 13:00:01;;;;;;;38.80;25.25;;;;;;;19.38;51.43;95424.22;5003448;28;20203;-78
2022/12/30 13:03:01;;;;;;;38.70;25.20;;;;;;;19.91;49.72;95414.53;5004769;28;20195;-78
2022/12/30 13:05:34;;;;;;;40.80;25.05;;;;;;;20.24;48.95;95428.13;5004699;28;20818;-79
2022/12/30 13:08:14;;;;;;;40.35;23.48;;;;;;;20.51;48.00;95432.47;5002199;28;20184;-79
2022/12/30 13:10:45;;;;;;;33.47;21.08;;;;;;;20.73;47.43;95443.59;5005763;28;20246;-83
2022/12/30 13:13:20;;;;;;;32.03;20.02;;;;;;;21.01;47.07;95444.97;5007099;28;20196;-83
2022/12/30 13:15:54;;;;;;;32.63;20.30;;;;;;;21.31;46.31;95439.72;5006631;28;20273;-82
2022/12/30 13:18:24;;;;;;;32.00;22.23;;;;;;;21.60;45.61;95439.94;5006674;28;20195;-83
2022/12/30 13:20:53;;;;;;;38.20;20.00;;;;;;;21.99;44.75;95448.91;5006929;28;20180;-84
2022/12/30 13:23:24;;;;;;;28.80;18.77;;;;;;;22.07;43.56;95444.91;5006578;28;20227;-82
2022/12/30 13:25:55;;;;;;;30.27;18.25;;;;;;;22.36;43.35;95444.00;5003838;28;20222;-82
2022/12/30 13:28:25;;;;;;;24.95;16.90;;;;;;;22.43;43.04;95449.78;5006756;28;20203;-83
2022/12/30 13:31:09;;;;;;;29.20;15.95;;;;;;;22.54;41.80;95448.66;5007792;28;20263;-83
2022/12/30 13:33:45;;;;;;;26.15;15.55;;;;;;;22.44;40.94;95440.00;5003492;28;20206;-83
2022/12/30 13:36:20;;;;;;;25.42;14.75;;;;;;;22.48;40.97;95449.00;5000318;28;20299;-78
2022/12/30 13:39:00;;;;;;;27.88;17.05;;;;;;;22.33;41.88;95441.09;5003711;28;20204;-82
2022/12/30 13:41:56;;;;;;;20.70;14.63;;;;;;;22.02;41.50;95445.69;5005696;28;20227;-81
2022/12/30 13:44:32;;;;;;;26.05;17.33;;;;;;;21.12;43.33;95446.59;5002044;28;20245;-81
2022/12/30 13:47:01;;;;;;;29.25;16.05;;;;;;;20.36;45.16;95444.56;5004437;28;20183;-80
2022/12/30 13:49:30;;;;;;;25.60;15.35;;;;;;;19.65;47.34;95434.72;5007629;28;20599;-84
2022/12/30 13:52:00;;;;;;;23.70;14.63;;;;;;;18.96;48.54;95442.59;5003410;28;20738;-78
2022/12/30 13:54:29;;;;;;;20.60;13.15;;;;;;;18.35;49.89;95445.66;5001889;28;20223;-79
2022/12/30 13:56:59;;;;;;;19.85;13.05;;;;;;;17.77;51.08;95436.53;5005546;28;20192;-79
2022/12/30 13:59:31;;;;;;;20.50;13.45;;;;;;;17.28;52.00;95434.75;5004886;28;20199;-77
2022/12/30 14:02:36;;;;;;;22.20;13.25;;;;;;;16.59;53.38;95433.34;5001865;28;20282;-78
2022/12/30 14:05:31;;;;;;;22.07;13.67;;;;;;;15.94;54.82;95428.38;4987035;28;20227;-77
2022/12/30 14:07:58;;;;;;;20.00;13.90;;;;;;;15.58;55.63;95432.09;5003480;28;20226;-80
2022/12/30 14:10:41;;;;;;;22.43;13.70;;;;;;;15.29;56.68;95423.28;5003994;28;20184;-78
2022/12/30 14:13:15;;;;;;;18.83;13.00;;;;;;;14.97;57.76;95429.91;5002514;28;20590;-78
2022/12/30 14:15:55;;;;;;;19.80;12.20;;;;;;;14.69;58.73;95433.13;5005662;28;20203;-77
2022/12/30 14:18:27;;;;;;;17.13;11.77;;;;;;;14.58;58.71;95423.44;5005966;28;20934;-78
2022/12/30 14:20:58;;;;;;;29.80;18.10;;;;;;;14.32;59.17;95428.19;5001811;28;20211;-80
2022/12/30 14:23:44;;;;;;;38.33;20.23;;;;;;;14.13;60.18;95424.81;5004121;28;20203;-79
2022/12/30 14:26:39;;;;;;;39.80;23.07;;;;;;;14.06;61.87;95437.16;5004330;28;20180;-78
2022/12/30 14:29:21;;;;;;;47.60;27.93;;;;;;;13.87;63.61;95430.38;5003280;28;20207;-79
2022/12/30 14:31:49;;;;;;;48.40;29.80;;;;;;;13.70;65.01;95429.34;5003485;28;20595;-79
2022/12/30 14:34:24;;;;;;;52.53;28.07;;;;;;;13.45;66.12;95418.94;4996881;28;20204;-78
2022/12/30 14:37:00;;;;;;;52.63;30.23;;;;;;;13.39;66.97;95427.69;5005747;28;20187;-83
2022/12/30 14:39:28;;;;;;;49.40;30.53;;;;;;;13.30;66.45;95431.56;5002741;28;20225;-83
2022/12/30 14:41:56;;;;;;;55.53;31.20;;;;;;;13.20;67.62;95431.25;5006146;28;20200;-81
2022/12/30 14:44:26;;;;;;;55.50;31.97;;;;;;;13.02;67.60;95416.31;5008837;28;20247;-79
2022/12/30 14:46:56;;;;;;;63.47;34.77;;;;;;;12.92;68.04;95427.25;5003108;28;20203;-80
2022/12/30 14:49:35;;;;;;;64.00;34.03;;;;;;;12.85;68.30;95429.09;5001254;28;20199;-79
2022/12/30 14:52:15;;;;;;;58.87;32.77;;;;;;;12.66;69.91;95429.25;5003266;28;20187;-81
2022/12/30 14:54:45;;;;;;;63.27;33.83;;;;;;;12.52;70.01;95426.72;5002690;28;20244;-79
2022/12/30 14:57:19;;;;;;;53.90;32.80;;;;;;;12.32;70.71;95428.63;5003233;28;20203;-78
2022/12/30 14:59:52;;;;;;;63.27;32.73;;;;;;;12.27;71.46;95430.28;5005528;28;20199;-78
2022/12/30 15:02:21;;;;;;;56.63;33.10;;;;;;;12.05;72.24;95429.78;5003236;28;20657;-78
2022/12/30 15:04:49;;;;;;;58.60;32.63;;;;;;;12.02;72.74;95429.41;5002521;28;20227;-79
2022/12/30 15:07:23;;;;;;;62.30;34.07;;;;;;;11.93;73.42;95432.25;5002903;28;20238;-78
2022/12/30 15:09:52;;;;;;;58.53;34.10;;;;;;;11.86;73.63;95422.88;5004860;28;20187;-82
2022/12/30 15:12:22;;;;;;;61.00;32.07;;;;;;;11.82;74.11;95430.28;5003310;28;20746;-82
2022/12/30 15:14:52;;;;;;;60.20;32.37;;;;;;;11.78;74.15;95433.50;5003513;28;20200;-83
2022/12/30 15:17:24;;;;;;;62.97;33.00;;;;;;;11.83;74.82;95433.72;5006200;28;20690;-83
2022/12/30 15:19:51;;;;;;;67.00;35.67;;;;;;;11.74;75.18;95451.38;5004877;28;20202;-82
2022/12/30 15:22:24;;;;;;;83.60;37.57;;;;;;;11.69;75.69;95447.72;5005613;28;20270;-83
2022/12/30 15:24:51;;;;;;;70.17;38.13;;;;;;;11.62;75.42;95447.75;5006597;28;20299;-83
2022/12/30 15:27:20;;;;;;;65.83;35.30;;;;;;;11.51;75.84;95455.41;5004079;28;20208;-80
2022/12/30 15:29:48;;;;;;;67.23;36.40;;;;;;;11.37;77.13;95444.19;5005324;28;20207;-81
2022/12/30 15:32:28;;;;;;;65.93;37.27;;;;;;;11.29;78.14;95453.00;5009742;28;20207;-81
2022/12/30 15:34:58;;;;;;;70.13;37.90;;;;;;;11.24;78.15;95449.41;5008023;28;20195;-82
2022/12/30 15:37:30;;;;;;;71.07;38.13;;;;;;;11.23;78.79;95448.63;5007673;28;20204;-84
2022/12/30 15:39:59;;;;;;;88.27;43.60;;;;;;;11.21;78.96;95450.63;5008574;28;20188;-83
2022/12/30 15:42:36;;;;;;;82.60;43.13;;;;;;;11.21;78.80;95461.03;5006136;28;20187;-81
2022/12/30 15:45:04;;;;;;;88.80;47.33;;;;;;;11.21;78.46;95462.84;5006145;28;20218;-83
2022/12/30 15:47:31;;;;;;;100.80;50.03;;;;;;;11.10;79.73;95453.84;5009571;28;20233;-83
2022/12/30 15:50:00;;;;;;;94.70;47.80;;;;;;;11.00;80.66;95453.44;5008127;28;20207;-82
2022/12/30 15:52:39;;;;;;;103.90;54.07;;;;;;;10.98;80.82;95452.84;5007141;28;20196;-82
2022/12/30 15:55:07;;;;;;;115.13;59.40;;;;;;;10.90;81.03;95450.44;5006018;28;21624;-82
2022/12/30 15:57:36;;;;;;;131.37;63.80;;;;;;;10.77;81.87;95463.44;5008020;28;20250;-80
2022/12/30 16:00:07;;;;;;;144.43;71.77;;;;;;;10.73;82.00;95473.44;5008255;28;20200;-81
2022/12/30 16:02:39;;;;;;;140.23;71.33;;;;;;;10.63;82.03;95473.00;5008077;28;20237;-81
2022/12/30 16:05:17;;;;;;;155.73;79.83;;;;;;;10.60;82.96;95472.59;5008818;28;20553;-81
2022/12/30 16:07:46;;;;;;;188.13;91.00;;;;;;;10.60;83.44;95477.81;5006840;28;20207;-81
2022/12/30 16:10:26;;;;;;;147.73;78.50;;;;;;;10.51;83.95;95468.59;5007472;28;20298;-81
2022/12/30 16:12:55;;;;;;;172.47;86.47;;;;;;;10.48;84.10;95466.38;5010213;28;20195;-81
2022/12/30 16:15:34;;;;;;;153.23;78.73;;;;;;;10.40;83.39;95461.38;5006851;28;20191;-79
2022/12/30 16:18:11;;;;;;;146.10;77.60;;;;;;;10.38;84.59;95476.34;5003299;28;20241;-78
2022/12/30 16:20:54;;;;;;;161.13;78.40;;;;;;;10.24;85.43;95463.31;5005444;28;20199;-78
2022/12/30 16:23:24;;;;;;;163.20;81.73;;;;;;;10.22;85.45;95472.31;5006376;28;20195;-79
2022/12/30 16:25:52;;;;;;;138.87;70.60;;;;;;;10.16;84.20;95475.69;5005275;28;20212;-80
2022/12/30 16:28:33;;;;;;;152.90;81.80;;;;;;;10.08;83.20;95487.03;5005762;28;20214;-80
2022/12/30 16:31:00;;;;;;;177.60;80.97;;;;;;;9.94;84.04;95471.56;5005418;28;20199;-81
2022/12/30 16:33:27;;;;;;;190.47;104.40;;;;;;;9.89;82.37;95481.75;5003984;28;20202;-82
2022/12/30 16:35:57;;;;;;;188.33;101.77;;;;;;;9.86;82.43;95482.94;5009155;28;20341;-83
2022/12/30 16:38:29;;;;;;;181.83;98.17;;;;;;;9.93;82.90;95486.34;5006370;28;20206;-80
2022/12/30 16:40:56;;;;;;;206.07;106.80;;;;;;;9.93;83.11;95486.34;5006922;28;20184;-81
2022/12/30 16:43:23;;;;;;;202.40;107.10;;;;;;;9.77;84.17;95486.69;5001622;28;20626;-82
2022/12/30 16:45:50;;;;;;;145.80;76.13;;;;;;;9.76;84.40;95486.84;5009144;28;20223;-82
2022/12/30 16:48:17;;;;;;;82.80;46.17;;;;;;;9.49;80.53;95454.78;5007315;28;21595;-85
2022/12/30 16:50:45;;;;;;;80.57;40.00;;;;;;;9.70;79.43;95494.44;5007443;28;20212;-85
2022/12/30 16:53:19;;;;;;;63.03;30.63;;;;;;;9.70;78.81;95491.84;5008045;28;20563;-83
2022/12/30 16:55:47;;;;;;;49.23;25.43;;;;;;;9.45;77.89;95469.13;5007039;28;20290;-83
2022/12/30 16:58:15;;;;;;;42.63;22.60;;;;;;;9.58;78.85;95485.56;5007510;28;20226;-87
2022/12/30 17:00:42;;;;;;;36.77;19.03;;;;;;;9.59;78.37;95496.75;5012458;28;20195;-87
2022/12/30 17:03:12;;;;;;;41.50;20.10;;;;;;;9.57;78.22;95506.53;5011064;28;20198;-86
2022/12/30 17:05:39;;;;;;;36.93;16.57;;;;;;;9.57;78.18;95511.72;5010891;28;20215;-84
2022/12/30 17:08:06;;;;;;;37.97;19.13;;;;;;;9.73;77.78;95521.78;5010623;28;20199;-84
2022/12/30 17:13:22;;;;;;;56.80;28.30;;;;;;;9.66;77.82;95520.97;5009816;28;20207;-85
2022/12/30 17:15:49;;;;;;;51.23;26.63;;;;;;;9.64;78.09;95520.34;5008758;28;20192;-82
2022/12/30 17:18:16;;;;;;;58.40;30.30;;;;;;;9.60;77.79;95506.16;5008078;28;20508;-83
2022/12/30 17:20:46;;;;;;;62.80;33.37;;;;;;;9.61;79.01;95523.31;5006492;28;20577;-81
2022/12/30 17:23:20;;;;;;;64.97;32.87;;;;;;;9.65;79.14;95521.94;5007201;28;20277;-81
2022/12/30 17:25:48;;;;;;;53.50;28.20;;;;;;;9.58;78.49;95515.94;5008892;28;20215;-81
2022/12/30 17:28:15;;;;;;;47.37;26.03;;;;;;;9.57;79.25;95511.72;5006147;28;20278;-82
2022/12/30 17:30:43;;;;;;;44.67;21.57;;;;;;;9.68;79.41;95524.16;5006981;28;20690;-85
2022/12/30 17:33:10;;;;;;;48.60;24.47;;;;;;;9.68;78.62;95518.97;5007002;28;20195;-85
2022/12/30 17:35:37;;;;;;;53.63;27.83;;;;;;;9.56;78.32;95491.94;5006698;28;20274;-87
2022/12/30 17:38:04;;;;;;;56.03;27.27;;;;;;;9.78;78.31;95534.22;5005691;28;21594;-87
2022/12/30 17:40:31;;;;;;;47.03;24.63;;;;;;;9.75;78.11;95526.81;5008375;28;20203;-84
2022/12/30 17:42:58;;;;;;;47.83;24.70;;;;;;;9.82;78.24;95531.03;5007365;28;20215;-84
2022/12/30 17:45:26;;;;;;;74.90;32.17;;;;;;;9.80;77.78;95529.63;5007938;28;20301;-87
2022/12/30 17:47:54;;;;;;;81.20;35.43;;;;;;;9.77;79.25;95536.00;5007562;28;20196;-86
2022/12/30 17:50:22;;;;;;;108.23;43.67;;;;;;;9.79;79.60;95539.19;5005615;28;20590;-85
2022/12/30 17:52:51;;;;;;;95.00;40.10;;;;;;;9.72;79.92;95540.97;5006149;28;20234;-86
2022/12/30 17:55:18;;;;;;;62.20;31.27;;;;;;;9.68;80.38;95537.13;5007591;28;20195;-85
2022/12/30 17:57:45;;;;;;;57.13;26.47;;;;;;;9.57;80.80;95533.28;5005933;28;20206;-87
2022/12/30 18:00:14;;;;;;;54.40;24.77;;;;;;;9.46;80.70;95541.59;5007629;28;20207;-82
2022/12/30 18:02:41;;;;;;;50.17;25.20;;;;;;;9.26;82.08;95521.69;5006234;28;20195;-82
2022/12/30 18:05:13;;;;;;;61.00;27.50;;;;;;;9.31;84.13;95545.25;5004907;28;20243;-82
2022/12/30 18:07:40;;;;;;;57.53;29.90;;;;;;;9.11;85.63;95532.94;5004429;28;20211;-82
2022/12/30 18:10:08;;;;;;;69.17;31.30;;;;;;;9.15;87.52;95548.13;5008822;28;20192;-86
2022/12/30 18:12:36;;;;;;;69.00;34.17;;;;;;;9.00;88.41;95543.03;5006011;28;20670;-91
2022/12/30 18:15:02;;;;;;;67.97;33.97;;;;;;;8.91;89.43;95554.50;5005415;28;20260;-81
2022/12/30 18:17:29;;;;;;;71.93;38.17;;;;;;;8.84;91.00;95549.25;5007072;28;20198;-83
2022/12/30 18:19:56;;;;;;;82.90;39.43;;;;;;;8.70;91.49;95542.31;5004952;28;20218;-82
2022/12/30 18:22:25;;;;;;;78.80;39.47;;;;;;;8.64;92.30;95542.25;5005829;28;20199;-83
2022/12/30 18:24:52;;;;;;;76.37;39.40;;;;;;;8.72;92.14;95550.72;5004747;28;20191;-82
2022/12/30 18:27:19;;;;;;;82.70;40.80;;;;;;;8.76;92.87;95551.16;5003753;28;20207;-82
2022/12/30 18:29:46;;;;;;;79.50;41.17;;;;;;;8.75;91.87;95552.94;5003795;28;20210;-81
2022/12/30 18:32:13;;;;;;;75.57;40.40;;;;;;;8.84;91.96;95562.19;5007034;28;20192;-82
2022/12/30 18:34:40;;;;;;;78.47;41.70;;;;;;;8.76;92.62;95551.16;5004310;28;20200;-82
2022/12/30 18:37:07;;;;;;;80.30;41.77;;;;;;;8.81;91.64;95570.34;5003700;28;20194;-82
2022/12/30 18:39:36;;;;;;;79.87;41.83;;;;;;;8.83;92.33;95578.72;5006327;28;20255;-82
2022/12/30 18:42:03;;;;;;;75.50;42.77;;;;;;;8.78;92.82;95575.88;5003690;28;20208;-82
2022/12/30 18:44:30;;;;;;;89.80;40.60;;;;;;;8.70;92.51;95564.84;5004556;28;20693;-81
2022/12/30 18:46:57;;;;;;;75.87;40.97;;;;;;;8.71;92.19;95582.00;5005185;28;20648;-81
2022/12/30 18:49:24;;;;;;;77.47;41.10;;;;;;;8.65;92.78;95582.72;5003408;28;20233;-82
2022/12/30 18:51:52;;;;;;;88.23;43.83;;;;;;;8.68;92.52;95582.38;5003159;28;20206;-82
2022/12/30 18:54:21;;;;;;;92.93;45.17;;;;;;;8.67;93.00;95588.53;5005794;28;20223;-80
2022/12/30 18:56:50;;;;;;;108.63;52.43;;;;;;;8.55;92.21;95589.00;5003053;28;20192;-81
2022/12/30 18:59:19;;;;;;;107.53;50.83;;;;;;;8.33;92.96;95576.19;5003412;28;20230;-84
2022/12/30 19:01:46;;;;;;;115.57;51.67;;;;;;;8.40;93.80;95579.63;5005537;28;21704;-85
2022/12/30 19:04:15;;;;;;;109.97;50.53;;;;;;;8.33;94.80;95571.00;5006155;28;20206;-84
2022/12/30 19:06:44;;;;;;;107.60;52.83;;;;;;;8.35;94.92;95579.38;5006830;28;20215;-82
2022/12/30 19:09:14;;;;;;;102.47;49.23;;;;;;;8.29;95.15;95580.91;5005571;28;20200;-83
2022/12/30 19:11:41;;;;;;;109.27;49.70;;;;;;;8.28;95.51;95591.47;5006992;28;20192;-84
2022/12/30 19:14:12;;;;;;;113.47;54.43;;;;;;;8.16;95.71;95570.38;5007140;28;20218;-84
2022/12/30 19:16:40;;;;;;;104.53;48.30;;;;;;;8.24;95.28;95590.19;5009089;28;20192;-91
2022/12/30 19:19:13;;;;;;;98.30;46.53;;;;;;;8.20;95.03;95589.72;5011909;28;20206;-88
2022/12/30 19:21:41;;;;;;;86.47;45.33;;;;;;;8.19;94.82;95576.97;5008674;28;20200;-86
2022/12/30 19:24:12;;;;;;;92.87;47.37;;;;;;;8.18;95.38;95580.53;5007307;28;20312;-85
2022/12/30 19:26:44;;;;;;;100.67;50.63;;;;;;;8.02;95.48;95562.63;5009429;28;20208;-88
2022/12/30 19:29:14;;;;;;;96.43;46.13;;;;;;;8.06;96.31;95579.38;5011626;28;20184;-88
2022/12/30 20:11:22;;;;;;;111.50;50.77;;;;;;;7.59;98.15;95570.16;5113214;27;20186;-82
2022/12/30 20:14:02;;;;;;;;;;;;;;;;;;;;;
2022/12/30 20:16:46;;;;;;;121.43;56.03;;;;;;;7.58;98.06;95580.69;5108631;27;20713;-84
2022/12/30 20:19:29;;;;;;;112.60;54.93;;;;;;;7.47;99.52;95599.25;5118712;27;20283;-83
2022/12/30 20:21:59;;;;;;;124.50;58.20;;;;;;;7.29;98.15;95565.94;5121861;27;20194;-81
2022/12/30 20:24:29;;;;;;;112.20;56.90;;;;;;;7.47;99.30;95591.47;5119736;27;20202;-85
2022/12/30 20:27:02;;;;;;;116.97;58.07;;;;;;;7.52;99.64;95609.84;5113105;27;20215;-84
2022/12/30 20:29:33;;;;;;;128.83;60.87;;;;;;;7.54;98.89;95600.94;5124439;27;20194;-81
2022/12/30 20:32:11;;;;;;;118.87;61.90;;;;;;;7.47;99.55;95597.47;5120623;27;20191;-83
2022/12/30 20:34:38;;;;;;;136.50;65.57;;;;;;;7.48;99.94;95603.41;5120551;27;20191;-81
2022/12/30 20:37:04;;;;;;;145.97;67.37;;;;;;;7.43;100.00;95603.94;5107463;27;20188;-82
2022/12/30 20:39:34;;;;;;;155.50;76.60;;;;;;;7.38;100.00;95593.34;5120936;27;20257;-81
2022/12/30 20:42:04;;;;;;;171.10;84.50;;;;;;;7.52;100.00;95607.25;5121268;27;20196;-81
2022/12/30 20:44:33;;;;;;;172.33;89.60;;;;;;;7.54;100.00;95613.06;5121708;27;20180;-80
2022/12/30 20:47:01;;;;;;;175.60;87.80;;;;;;;7.57;100.00;95612.72;5119766;27;20214;-80
2022/12/30 20:49:28;;;;;;;178.63;90.43;;;;;;;7.60;100.00;95618.34;5120262;27;20183;-79
2022/12/30 20:51:57;;;;;;;180.30;90.20;;;;;;;7.57;100.00;95610.94;5128321;27;20192;-83
2022/12/30 20:54:25;;;;;;;186.23;97.57;;;;;;;7.64;100.00;95622.19;5126791;27;20191;-80
2022/12/30 20:56:52;;;;;;;192.13;98.73;;;;;;;7.61;99.58;95621.75;5110187;27;20192;-83
2022/12/30 20:59:20;;;;;;;224.57;113.23;;;;;;;7.46;99.72;95590.66;5111879;27;20286;-83
2022/12/30 21:01:50;;;;;;;224.50;115.37;;;;;;;7.59;99.59;95621.91;5122895;27;20226;-82
2022/12/30 21:04:18;;;;;;;156.97;80.17;;;;;;;7.64;99.25;95604.09;5117034;27;20239;-81
2022/12/30 21:06:46;;;;;;;143.93;73.23;;;;;;;7.66;98.68;95616.84;5119174;27;20216;-82
2022/12/30 21:09:15;;;;;;;144.10;74.87;;;;;;;7.64;98.39;95614.44;5120331;27;20187;-80
2022/12/30 21:11:43;;;;;;;154.83;82.13;;;;;;;7.64;98.50;95611.84;5114969;27;20183;-80
2022/12/30 21:14:11;;;;;;;163.63;85.57;;;;;;;7.68;97.66;95615.69;5119178;27;20200;-82
2022/12/30 21:16:40;;;;;;;164.70;82.80;;;;;;;7.57;98.71;95620.47;5125636;27;20654;-80
2022/12/30 21:19:07;;;;;;;173.27;94.40;;;;;;;7.51;99.04;95627.16;5112212;27;20698;-80
2022/12/30 21:21:34;;;;;;;173.63;87.90;;;;;;;7.51;99.01;95619.38;5118443;27;20212;-80
2022/12/30 21:24:01;;;;;;;158.97;81.83;;;;;;;7.62;98.29;95618.19;5121401;27;20204;-83
2022/12/30 21:26:29;;;;;;;155.07;79.27;;;;;;;7.68;98.63;95628.59;5121536;27;20230;-82
2022/12/30 21:28:57;;;;;;;158.93;84.63;;;;;;;7.65;98.78;95633.31;5115355;27;20204;-80
2022/12/30 21:34:20;;;;;;;174.50;92.20;;;;;;;7.54;99.71;95636.34;5083442;23;20232;-78
2022/12/30 21:36:51;;;;;;;158.20;86.27;;;;;;;7.59;98.40;95632.25;5074807;28;20282;-79
2022/12/30 22:05:12;;;;;;;77.37;40.63;;;;;;;7.20;99.58;95636.78;5080564;28;20193;-79
2022/12/30 22:07:41;;;;;;;81.13;42.10;;;;;;;7.29;99.41;95635.75;5081543;28;20217;-78
2022/12/30 22:10:10;;;;;;;90.93;45.83;;;;;;;7.20;99.96;95639.34;5080951;28;20214;-79
2022/12/30 22:12:40;;;;;;;86.33;45.67;;;;;;;7.18;100.00;95633.56;5074998;28;20196;-80
2022/12/30 22:18:40;;;;;;;109.87;54.90;;;;;;;6.62;100.00;95557.22;5081417;28;20671;-79
2022/12/30 22:21:26;;;;;;;113.63;57.40;;;;;;;6.57;100.00;95564.69;5079463;28;20200;-80
2022/12/30 22:23:55;;;;;;;126.60;62.00;;;;;;;7.02;100.00;95637.06;5076316;28;20180;-80
2022/12/30 22:26:31;;;;;;;129.50;64.77;;;;;;;7.04;99.82;95634.31;5080155;28;20215;-79
2022/12/30 22:29:04;;;;;;;140.33;71.53;;;;;;;6.95;100.00;95628.41;5077453;28;20200;-80
2022/12/30 22:31:34;;;;;;;155.63;77.67;;;;;;;6.88;100.00;95637.78;5079102;28;20228;-79
2022/12/30 22:34:01;;;;;;;161.20;81.33;;;;;;;6.84;100.00;95645.06;5077887;28;20225;-79
2022/12/30 22:36:54;;;;;;;148.10;79.63;;;;;;;6.85;100.00;95643.28;5078198;28;20655;-79
2022/12/30 22:40:40;;;;;;;167.27;81.37;;;;;;;6.36;100.00;95567.88;5081308;28;20180;-80
2022/12/30 22:43:20;;;;;;;173.27;86.80;;;;;;;6.37;100.00;95561.75;4991906;28;20205;-79
2022/12/30 22:45:48;;;;;;;142.23;77.20;;;;;;;6.86;100.00;95639.75;4990450;28;20219;-78
2022/12/30 22:48:21;;;;;;;152.93;80.60;;;;;;;6.76;100.00;95619.28;4996028;28;20213;-81
2022/12/30 22:50:48;;;;;;;166.23;88.47;;;;;;;6.84;100.00;95641.69;4986809;28;20242;-79
2022/12/30 22:53:17;;;;;;;181.37;94.10;;;;;;;6.85;100.00;95636.34;4986892;28;20819;-78
2022/12/30 22:55:44;;;;;;;160.93;81.97;;;;;;;6.84;100.00;95642.50;4990818;28;20218;-77
2022/12/30 22:58:11;;;;;;;166.13;80.83;;;;;;;6.77;100.00;95646.75;4989969;28;20200;-80
2022/12/30 23:00:41;;;;;;;166.93;87.17;;;;;;;6.73;100.00;95652.41;5020643;28;20615;-79
2022/12/30 23:03:16;;;;;;;172.00;88.77;;;;;;;6.69;100.00;95651.16;5080503;28;20195;-79
2022/12/30 23:05:47;;;;;;;200.63;103.60;;;;;;;6.65;100.00;95657.59;5079243;28;20192;-79
2022/12/30 23:08:18;;;;;;;180.10;96.13;;;;;;;6.65;100.00;95663.59;5077005;28;20949;-80
2022/12/30 23:10:53;;;;;;;186.30;94.40;;;;;;;6.61;100.00;95656.34;5081792;28;20297;-81
2022/12/30 23:16:12;;;;;;;182.20;92.60;;;;;;;6.58;100.00;95664.44;5079672;28;20215;-80
2022/12/30 23:18:53;;;;;;;181.63;85.73;;;;;;;6.52;100.00;95644.44;5083949;28;20635;-81
2022/12/30 23:27:17;;;;;;;156.27;79.43;;;;;;;6.29;100.00;95624.50;5075230;28;20270;-82
2022/12/30 23:29:45;;;;;;;162.80;85.73;;;;;;;6.28;100.00;95653.91;5082076;28;20204;-79
2022/12/30 23:32:13;;;;;;;210.43;105.20;;;;;;;6.23;100.00;95653.56;5083060;28;20295;-83
2022/12/30 23:34:40;;;;;;;240.53;115.70;;;;;;;6.31;100.00;95659.69;5080276;28;20584;-81
2022/12/30 23:37:07;;;;;;;216.00;106.63;;;;;;;6.23;100.00;95651.00;5081737;28;20261;-81
2022/12/30 23:39:39;;;;;;;201.83;101.90;;;;;;;6.20;100.00;95655.69;5083834;28;20691;-82
2022/12/30 23:42:05;;;;;;;218.70;103.97;;;;;;;6.13;100.00;95652.97;5080133;28;20200;-82
2022/12/30 23:44:34;;;;;;;244.17;115.67;;;;;;;6.03;100.00;95651.56;5077911;28;20215;-81
2022/12/30 23:53:04;;;;;;;216.90;104.13;;;;;;;5.56;100.00;95592.13;4955282;28;20299;-80
2022/12/30 23:56:06;;;;;;;229.13;105.00;;;;;;;5.49;100.00;95579.09;5077978;28;20591;-80
2022/12/30 23:58:45;;;;;;;218.67;107.47;;;;;;;5.60;100.00;95581.31;5074593;28;20200;-78
